Thursday, November 23, 2017, 4:31 AM EST
Back to Local

K12N, Aeroflex-andover Airport

Location: Newton, NJ, United States Lat: 41.017
Local Time: 4:31 AM EST ( 9:31 GMT) Lon: -74.733
Time Zone: US/Eastern Elev: 583 ft

Show me the last for .
Show Decoded

2017-11-23 03:54 METAR K12N 230854Z AUTO VRB05KT M02/M08 A3009 RMK AO1 SLP198 T10221078 58002 =
2017-11-23 02:54 METAR K12N 230754Z AUTO 35007KT M02/M08 A3010 RMK AO1 SLP201 T10171078 =
2017-11-23 01:54 METAR K12N 230654Z AUTO 00000KT M02/M07 A3009 RMK AO1 SLP198 T10171072 =
2017-11-23 00:54 METAR K12N 230554Z AUTO 00000KT M01/M07 A3009 RMK AO1 SLP199 T10061072 10022
                 21011 58001 =
2017-11-22 23:54 METAR K12N 230454Z AUTO 33005KT M01/M07 A3011 RMK AO1 SLP202 T10061072 400941006
                 =
2017-11-22 22:54 METAR K12N 230354Z AUTO 35008KT 00/M07 A3010 RMK AO1 SLP200 T00001072 =
2017-11-22 20:54 METAR K12N 230154Z AUTO VRB04KT 01/M06 A3008 RMK AO1 SLP196 T00111056 =
2017-11-22 19:54 METAR K12N 230054Z AUTO 34010G19KT 270V010 02/M05 A3008 RMK AO1 SLP193 T00171050
                 =
2017-11-22 18:54 METAR K12N 222354Z AUTO 35006KT 02/M04 A3006 RMK AO1 SLP188 T00221039 10083
                 20022 53021 =
2017-11-22 17:54 METAR K12N 222254Z AUTO 34007G19KT 03/M04 A3004 RMK AO1 SLP181 T00331039 =
2017-11-22 16:54 METAR K12N 222154Z AUTO 35007KT 04/M04 A3001 RMK AO1 SLP172 T00391039 =
2017-11-22 15:54 METAR K12N 222054Z AUTO 33008G20KT 300V010 04/M03 A3000 RMK AO1 SLP166 T00441033
                 53019 =
2017-11-22 14:54 METAR K12N 221954Z AUTO 33009G19KT 06/M02 A2998 RMK AO1 SLP158 T00561022 =
2017-11-22 13:54 METAR K12N 221854Z AUTO 35008G18KT 07/M01 A2995 RMK AO1 SLP150 T00671006 =
2017-11-22 12:54 METAR K12N 221754Z AUTO 35009G16KT 320V020 07/01 A2994 RMK AO1 SLP147 60003
                 T00670011 10094 20033 53013 =
2017-11-22 11:54 METAR K12N 221654Z AUTO 34007G15KT 290V020 08/03 A2991 RMK AO1 SLP136 T00830033
                 =
2017-11-22 10:54 METAR K12N 221554Z AUTO VRB04KT 09/06 A2991 RMK AO1 SLP135 T00940056 =
2017-11-22 09:54 METAR K12N 221454Z AUTO 00000KT 07/06 A2991 RMK AO1 SLP134 60003 T00670061 58003
                 =
2017-11-22 08:54 METAR K12N 221354Z AUTO 00000KT 05/04 A2991 RMK AO1 SLP136 T00500044 =
2017-11-22 07:54 METAR K12N 221254Z AUTO 00000KT 04/04 A2992 RMK AO1 SLP141 P0003 T00390039 =
2017-11-22 06:54 METAR K12N 221154Z AUTO 20003KT 03/03 A2991 RMK AO1 SLP136 T00330028 10039 20011
                 55006 =
2017-11-22 05:54 METAR K12N 221054Z AUTO 00000KT 02/02 A2989 RMK AO1 SLP128 T00220017 =
2017-11-22 04:54 METAR K12N 220954Z AUTO 00000KT 02/02 A2991 RMK AO1 SLP134 T00220017 =

Support USWX by starting your Amazon purchase here.